createdAt,value
2018-04-23T00:01:22.690Z,3.77
2018-04-23T00:03:52.187Z,4.70
2018-04-23T00:06:21.717Z,4.60
2018-04-23T00:08:51.293Z,3.80
2018-04-23T00:11:20.826Z,4.50
2018-04-23T00:13:50.330Z,4.20
2018-04-23T00:16:19.944Z,4.57
2018-04-23T00:18:49.937Z,4.50
2018-04-23T00:21:19.464Z,4.10
2018-04-23T00:23:48.979Z,4.90
2018-04-23T00:26:18.488Z,4.47
2018-04-23T00:28:48.072Z,4.03
2018-04-23T00:31:17.598Z,4.10
2018-04-23T00:33:47.120Z,4.13
2018-04-23T00:36:17.011Z,4.53
2018-04-23T00:38:46.598Z,4.13
2018-04-23T00:41:16.110Z,3.93
2018-04-23T00:43:45.632Z,4.10
2018-04-23T00:46:15.146Z,4.37
2018-04-23T00:48:44.657Z,4.17
2018-04-23T00:51:14.184Z,4.17
2018-04-23T00:53:43.756Z,4.03
2018-04-23T00:56:13.313Z,3.97
2018-04-23T00:58:42.820Z,4.03
2018-04-23T01:01:12.728Z,3.80
2018-04-23T01:03:42.648Z,3.83
2018-04-23T01:06:12.163Z,3.90
2018-04-23T01:08:42.073Z,4.03
2018-04-23T01:11:11.974Z,4.00
2018-04-23T01:13:41.493Z,4.03
2018-04-23T01:16:11.418Z,4.20
2018-04-23T01:18:41.330Z,4.47
2018-04-23T01:21:11.556Z,4.20
2018-04-23T01:23:41.083Z,4.10
2018-04-23T01:26:10.588Z,3.97
2018-04-23T01:28:40.135Z,4.33
2018-04-23T01:31:09.672Z,4.37
2018-04-23T01:33:39.586Z,4.23
2018-04-23T01:36:09.494Z,4.17
2018-04-23T01:38:39.030Z,4.30
2018-04-23T01:41:08.544Z,4.30
2018-04-23T01:43:38.048Z,4.43
2018-04-23T01:46:07.550Z,4.10
2018-04-23T01:48:37.056Z,4.00
2018-04-23T01:51:06.618Z,4.27
2018-04-23T01:53:36.448Z,4.03
2018-04-23T01:56:05.587Z,4.07
2018-04-23T01:58:35.092Z,3.77
2018-04-23T02:01:04.594Z,3.67
2018-04-23T02:03:34.110Z,3.77
2018-04-23T02:06:03.646Z,4.13
2018-04-23T02:08:33.174Z,4.10
2018-04-23T02:11:02.882Z,4.57
2018-04-23T02:13:32.385Z,4.43
2018-04-23T02:16:01.967Z,4.00
2018-04-23T02:18:31.620Z,4.20
2018-04-23T02:21:01.528Z,4.03
2018-04-23T02:23:31.434Z,4.50
2018-04-23T02:26:01.252Z,4.20
2018-04-23T02:28:31.184Z,4.10
2018-04-23T02:31:00.698Z,4.43
2018-04-23T02:33:30.228Z,3.87
2018-04-23T02:35:59.744Z,4.00
2018-04-23T02:38:29.252Z,4.40
2018-04-23T02:40:58.752Z,3.97
2018-04-23T02:43:28.283Z,4.23
2018-04-23T02:45:57.783Z,3.70
2018-04-23T02:48:27.314Z,4.10
2018-04-23T02:50:57.224Z,3.80
2018-04-23T02:53:26.736Z,4.10
2018-04-23T02:55:56.954Z,4.10
2018-04-23T02:58:26.883Z,3.67
2018-04-23T03:00:56.794Z,4.20
2018-04-23T03:03:26.700Z,4.50
2018-04-23T03:05:56.237Z,3.87
2018-04-23T03:08:25.744Z,4.33
2018-04-23T03:10:55.257Z,3.80
2018-04-23T03:13:24.762Z,4.03
2018-04-23T03:15:54.266Z,4.00
2018-04-23T03:18:23.450Z,3.83
2018-04-23T03:20:52.961Z,3.53
2018-04-23T03:23:22.464Z,3.70
2018-04-23T03:25:51.660Z,4.00
2018-04-23T03:28:21.183Z,4.30
2018-04-23T03:30:50.687Z,4.67
2018-04-23T03:33:20.394Z,4.30
2018-04-23T03:35:49.909Z,3.80
2018-04-23T03:38:19.394Z,4.27
2018-04-23T03:40:48.919Z,3.57
2018-04-23T03:43:18.420Z,3.87
2018-04-23T03:45:47.932Z,3.70
2018-04-23T03:48:17.431Z,3.63
2018-04-23T03:50:46.942Z,4.00
2018-04-23T03:53:16.458Z,4.10
2018-04-23T03:55:45.957Z,4.00
2018-04-23T03:58:15.469Z,4.10
2018-04-23T04:00:45.011Z,3.90
2018-04-23T04:03:14.524Z,4.10
2018-04-23T04:05:44.439Z,3.87
2018-04-23T04:08:13.968Z,4.30
2018-04-23T04:10:43.475Z,4.43
2018-04-23T04:13:30.019Z,4.27
2018-04-23T04:16:16.410Z,4.17
2018-04-23T04:18:46.781Z,4.27
2018-04-23T04:21:16.315Z,4.27
2018-04-23T04:23:46.322Z,4.60
2018-04-23T04:27:03.931Z,4.27
2018-04-23T04:29:35.144Z,4.30
2018-04-23T04:32:04.673Z,4.13
2018-04-23T04:34:34.187Z,4.40
2018-04-23T04:37:03.751Z,4.40
2018-04-23T04:39:33.323Z,4.60
2018-04-23T04:42:03.231Z,4.37
2018-04-23T04:44:33.151Z,4.30
2018-04-23T04:47:03.093Z,4.60
2018-04-23T04:49:32.603Z,3.67
2018-04-23T04:52:02.425Z,3.90
2018-04-23T04:54:32.212Z,3.90
2018-04-23T04:57:01.713Z,4.07
2018-04-23T04:59:31.223Z,3.87
2018-04-23T05:02:00.723Z,3.60
2018-04-23T05:04:30.639Z,3.40
2018-04-23T05:07:00.563Z,3.73
2018-04-23T05:09:30.066Z,3.90
2018-04-23T05:11:59.568Z,4.07
2018-04-23T05:14:29.496Z,4.40
2018-04-23T05:16:59.011Z,4.23
2018-04-23T05:19:28.294Z,3.80
2018-04-23T05:23:02.681Z,3.30
2018-04-23T05:25:32.177Z,4.20
2018-04-23T05:28:01.710Z,4.10
2018-04-23T05:30:31.427Z,3.80
2018-04-23T05:33:01.340Z,3.73
2018-04-23T05:35:31.269Z,4.30
2018-04-23T05:38:01.207Z,5.37
2018-04-23T05:40:30.719Z,3.83
2018-04-23T05:43:00.019Z,4.03
2018-04-23T05:45:29.510Z,4.40
2018-04-23T05:47:59.023Z,3.73
2018-04-23T05:50:28.532Z,4.10
2018-04-23T05:52:58.070Z,4.60
2018-04-23T05:55:27.577Z,4.60
2018-04-23T05:57:57.094Z,4.50
2018-04-23T06:00:26.612Z,4.17
2018-04-23T06:02:56.506Z,4.63
2018-04-23T06:05:26.044Z,4.03
2018-04-23T06:07:55.952Z,4.50
2018-04-23T06:10:25.853Z,4.57
2018-04-23T06:12:55.367Z,5.00
2018-04-23T06:15:25.277Z,4.53
2018-04-23T06:17:55.347Z,4.20
2018-04-23T06:20:25.827Z,4.25
2018-04-23T06:22:55.915Z,4.32
2018-04-23T06:25:26.453Z,4.28
2018-04-23T06:27:56.541Z,4.25
2018-04-23T06:30:26.593Z,4.40
2018-04-23T06:32:56.685Z,4.47
2018-04-23T06:35:26.749Z,3.80
2018-04-23T06:37:56.838Z,4.22
2018-04-23T06:40:26.919Z,4.05
2018-04-23T06:42:56.986Z,4.10
2018-04-23T06:45:27.071Z,4.05
2018-04-23T06:47:57.165Z,4.12
2018-04-23T06:51:02.905Z,4.03
2018-04-23T06:53:32.998Z,4.72
2018-04-23T06:56:03.078Z,4.05
2018-04-23T06:58:33.183Z,3.90
2018-04-23T07:01:03.714Z,3.95
2018-04-23T07:03:33.784Z,4.25
2018-04-23T07:06:04.238Z,3.60
2018-04-23T07:08:34.537Z,3.42
2018-04-23T07:11:04.614Z,3.87
2018-04-23T07:13:34.702Z,3.65
2018-04-23T07:16:04.772Z,3.87
2018-04-23T07:18:35.259Z,3.87
2018-04-23T07:21:05.336Z,3.80
2018-04-23T07:23:36.025Z,3.45
2018-04-23T07:26:06.097Z,3.80
2018-04-23T07:28:36.151Z,3.75
2018-04-23T07:31:05.975Z,3.62
2018-04-23T07:33:36.206Z,3.37
2018-04-23T07:36:06.264Z,3.70
2018-04-23T07:38:36.729Z,3.72
2018-04-23T07:41:06.863Z,3.70
2018-04-23T07:43:36.924Z,3.78
2018-04-23T07:46:07.005Z,4.62
2018-04-23T07:48:37.273Z,3.83
2018-04-23T07:51:07.344Z,3.80
2018-04-23T07:53:37.451Z,4.53
2018-04-23T07:56:07.523Z,4.45
2018-04-23T07:58:37.989Z,4.15
2018-04-23T08:01:08.409Z,3.95
2018-04-23T08:03:38.494Z,4.20
2018-04-23T08:06:08.956Z,3.90
2018-04-23T08:08:39.025Z,4.70
2018-04-23T08:11:09.306Z,3.80
2018-04-23T08:13:39.416Z,4.00
2018-04-23T08:16:09.496Z,4.07
2018-04-23T08:18:39.979Z,3.90
2018-04-23T08:21:10.097Z,4.35
2018-04-23T08:23:40.186Z,4.07
2018-04-23T08:26:10.635Z,4.00
2018-04-23T08:28:40.728Z,4.53
2018-04-23T08:31:10.804Z,4.78
2018-04-23T08:33:40.902Z,3.85
2018-04-23T08:36:11.030Z,4.00
2018-04-23T08:38:41.099Z,3.92
2018-04-23T08:41:11.219Z,4.60
2018-04-23T08:43:41.726Z,4.20
2018-04-23T08:46:11.941Z,4.50
2018-04-23T08:48:42.042Z,4.87
2018-04-23T08:51:12.107Z,4.07
2018-04-23T08:53:42.205Z,4.32
2018-04-23T08:56:12.312Z,4.50
2018-04-23T08:58:42.401Z,4.45
2018-04-23T09:01:12.480Z,4.55
2018-04-23T09:03:42.952Z,4.68
2018-04-23T09:06:13.020Z,4.28
2018-04-23T09:08:43.500Z,4.30
2018-04-23T09:11:13.595Z,4.25
2018-04-23T09:13:43.671Z,4.87
2018-04-23T09:16:13.746Z,4.05
2018-04-23T09:18:43.831Z,4.45
2018-04-23T09:21:14.318Z,4.25
2018-04-23T09:23:44.407Z,3.90
2018-04-23T09:26:14.487Z,3.90
2018-04-23T09:28:45.003Z,4.40
2018-04-23T09:31:15.069Z,3.80
2018-04-23T09:33:45.133Z,4.28
2018-04-23T09:36:15.231Z,4.62
2018-04-23T09:38:45.288Z,3.80
2018-04-23T09:41:15.357Z,3.95
2018-04-23T09:43:46.035Z,4.35
2018-04-23T09:46:16.315Z,3.92
2018-04-23T09:48:46.379Z,4.45
2018-04-23T09:51:16.468Z,4.65
2018-04-23T09:53:46.576Z,4.65
2018-04-23T09:56:16.675Z,4.47
2018-04-23T09:58:46.791Z,4.70
2018-04-23T10:01:20.531Z,4.97
2018-04-23T10:03:51.529Z,4.55
2018-04-23T10:06:21.292Z,4.28
2018-04-23T10:08:51.076Z,4.10
2018-04-23T10:11:21.153Z,4.65
2018-04-23T10:13:51.223Z,4.37
2018-04-23T10:16:21.299Z,4.40
2018-04-23T10:18:51.770Z,4.72
2018-04-23T10:21:21.847Z,4.10
2018-04-23T10:23:52.323Z,4.03
2018-04-23T10:26:22.417Z,4.35
2018-04-23T10:28:52.524Z,4.53
2018-04-23T10:31:23.026Z,4.40
2018-04-23T10:33:53.254Z,4.20
2018-04-23T10:36:23.534Z,4.53
2018-04-23T10:38:53.643Z,4.15
2018-04-23T10:41:23.914Z,3.97
2018-04-23T10:43:54.004Z,4.10
2018-04-23T10:46:24.069Z,4.45
2018-04-23T10:48:54.551Z,3.80
2018-04-23T10:51:24.630Z,3.70
2018-04-23T10:53:54.827Z,4.85
2018-04-23T10:56:24.943Z,4.25
2018-04-23T10:58:55.040Z,4.15
2018-04-23T11:01:25.332Z,3.92
2018-04-23T11:03:55.406Z,4.45
2018-04-23T11:06:25.479Z,4.40
2018-04-23T11:08:55.577Z,4.47
2018-04-23T11:11:25.648Z,4.05
2018-04-23T11:13:55.718Z,4.70
2018-04-23T11:16:25.786Z,4.80
2018-04-23T11:18:55.864Z,4.40
2018-04-23T11:21:26.112Z,4.40
2018-04-23T11:23:56.206Z,4.95
2018-04-23T11:26:26.288Z,4.50
2018-04-23T11:28:56.354Z,4.78
2018-04-23T11:31:26.448Z,4.78
2018-04-23T11:33:56.534Z,4.28
2018-04-23T11:36:26.600Z,5.00
2018-04-23T11:38:56.687Z,4.97
2018-04-23T11:41:26.932Z,4.78
2018-04-23T11:43:57.026Z,4.65
2018-04-23T11:46:27.520Z,4.75
2018-04-23T11:48:57.593Z,5.10
2018-04-23T11:51:27.690Z,4.87
2018-04-23T11:53:57.965Z,5.00
2018-04-23T11:56:28.058Z,5.32
2018-04-23T11:58:58.149Z,4.97
2018-04-23T12:01:28.540Z,5.45
2018-04-23T12:03:58.617Z,4.85
2018-04-23T12:06:29.104Z,4.90
2018-04-23T12:08:59.228Z,6.12
2018-04-23T12:11:29.304Z,5.37
2018-04-23T12:13:59.382Z,4.78
2018-04-23T12:16:29.140Z,5.15
2018-04-23T12:18:59.231Z,5.10
2018-04-23T12:21:29.702Z,4.93
2018-04-23T12:23:59.794Z,5.07
2018-04-23T12:26:29.881Z,5.15
2018-04-23T12:29:00.001Z,5.18
2018-04-23T12:31:30.080Z,5.45
2018-04-23T12:34:00.152Z,5.85
2018-04-23T12:36:30.682Z,5.68
2018-04-23T12:39:00.898Z,5.28
2018-04-23T12:41:31.354Z,5.75
2018-04-23T12:44:01.446Z,5.45
2018-04-23T12:46:31.567Z,5.97
2018-04-23T12:49:01.806Z,5.45
2018-04-23T12:51:31.893Z,5.43
2018-04-23T12:54:01.971Z,4.87
2018-04-23T12:56:32.047Z,4.95
2018-04-23T12:59:02.547Z,4.90
2018-04-23T13:01:32.621Z,3.75
2018-04-23T13:04:02.687Z,4.03
2018-04-23T13:06:32.758Z,3.12
2018-04-23T13:09:03.235Z,3.28
2018-04-23T13:11:33.284Z,3.95
2018-04-23T13:14:03.351Z,3.70
2018-04-23T13:16:33.423Z,4.65
2018-04-23T13:19:03.906Z,4.95
2018-04-23T13:21:33.995Z,4.75
2018-04-23T13:24:04.065Z,4.57
2018-04-23T13:26:34.134Z,4.43
2018-04-23T13:29:04.202Z,4.00
2018-04-23T13:31:34.271Z,4.32
2018-04-23T13:34:04.559Z,4.37
2018-04-23T13:36:34.635Z,5.18
2018-04-23T13:39:03.937Z,4.10
2018-04-23T13:41:34.005Z,3.90
2018-04-23T13:44:04.462Z,4.65
2018-04-23T13:46:34.564Z,4.55
2018-04-23T13:49:04.641Z,4.78
2018-04-23T13:51:34.779Z,3.95
2018-04-23T13:54:04.841Z,4.32
2018-04-23T13:56:34.938Z,4.20
2018-04-23T13:59:05.031Z,4.32
2018-04-23T14:01:35.131Z,4.40
2018-04-23T14:04:05.390Z,4.78
2018-04-23T14:06:35.850Z,4.62
2018-04-23T14:09:05.020Z,4.93
2018-04-23T14:11:35.536Z,5.50
2018-04-23T14:14:05.792Z,4.80
2018-04-23T14:16:35.866Z,5.22
2018-04-23T14:19:05.938Z,4.70
2018-04-23T14:21:36.032Z,5.40
2018-04-23T14:24:06.521Z,5.20
2018-04-23T14:26:36.622Z,4.68
2018-04-23T14:29:06.702Z,4.90
2018-04-23T14:31:37.193Z,6.00
2018-04-23T14:34:07.269Z,4.93
2018-04-23T14:36:37.364Z,6.47
2018-04-23T14:39:07.267Z,4.75
2018-04-23T14:41:37.356Z,5.40
2018-04-23T14:44:07.439Z,5.50
2018-04-23T14:46:37.539Z,5.53
2018-04-23T14:49:08.013Z,6.10
2018-04-23T14:51:38.098Z,5.20
2018-04-23T14:54:08.177Z,5.53
2018-04-23T14:56:38.273Z,4.68
2018-04-23T14:59:08.377Z,5.47
2018-04-23T15:01:38.457Z,5.10
2018-04-23T15:04:08.906Z,4.62
2018-04-23T15:06:38.992Z,5.18
2018-04-23T15:09:09.066Z,4.68
2018-04-23T15:11:39.145Z,5.70
2018-04-23T15:14:09.859Z,4.97
2018-04-23T15:16:39.960Z,5.50
2018-04-23T15:19:09.797Z,5.57
2018-04-23T15:21:39.642Z,5.28
2018-04-23T15:24:09.721Z,5.30
2018-04-23T15:26:39.825Z,6.25
2018-04-23T15:29:09.892Z,5.60
2018-04-23T15:31:40.005Z,5.62
2018-04-23T15:34:10.479Z,5.05
2018-04-23T15:36:40.618Z,5.03
2018-04-23T15:39:10.698Z,4.65
2018-04-23T15:41:40.764Z,4.68
2018-04-23T15:44:09.596Z,4.23
2018-04-23T15:46:39.095Z,3.60
2018-04-23T15:49:08.615Z,3.50
2018-04-23T15:51:38.117Z,3.80
2018-04-23T15:54:07.631Z,3.63
2018-04-23T15:56:37.165Z,3.60
2018-04-23T15:59:07.071Z,3.73
2018-04-23T16:01:36.972Z,4.17
2018-04-23T16:04:06.481Z,3.70
2018-04-23T16:06:35.981Z,4.17
2018-04-23T16:09:04.360Z,4.00
2018-04-23T16:11:33.639Z,3.80
2018-04-23T16:14:03.146Z,3.47
2018-04-23T16:16:32.661Z,4.17
2018-04-23T16:19:02.183Z,3.93
2018-04-23T16:21:31.681Z,3.37
2018-04-23T16:24:01.188Z,3.80
2018-04-23T16:26:30.695Z,3.47
2018-04-23T16:29:00.185Z,3.40
2018-04-23T16:31:29.685Z,2.90
2018-04-23T16:33:58.891Z,3.47
2018-04-23T16:36:28.404Z,3.20
2018-04-23T16:38:57.923Z,3.13
2018-04-23T16:41:27.664Z,3.83
2018-04-23T16:43:57.161Z,3.03
2018-04-23T16:46:27.061Z,3.93
2018-04-23T16:48:56.968Z,3.60
2018-04-23T16:51:26.469Z,3.70
2018-04-23T16:53:55.991Z,3.33
2018-04-23T16:56:25.901Z,3.67
2018-04-23T16:58:55.829Z,3.33
2018-04-23T17:01:25.751Z,3.80
2018-04-23T17:03:55.454Z,3.70
2018-04-23T17:06:25.152Z,3.37
2018-04-23T17:08:55.053Z,3.63
2018-04-23T17:11:24.586Z,4.17
2018-04-23T17:13:54.498Z,3.70
2018-04-23T17:16:24.412Z,3.70
2018-04-23T17:18:54.318Z,4.87
2018-04-23T17:21:24.236Z,3.73
2018-04-23T17:23:54.145Z,4.00
2018-04-23T17:26:24.134Z,3.77
2018-04-23T17:28:53.921Z,3.40
2018-04-23T17:31:23.425Z,3.70
2018-04-23T17:33:53.136Z,3.60
2018-04-23T17:36:22.668Z,4.17
2018-04-23T17:38:52.216Z,4.07
2018-04-23T17:41:22.127Z,3.80
2018-04-23T17:43:52.049Z,4.00
2018-04-23T17:46:21.608Z,4.83
2018-04-23T17:48:51.133Z,4.67
2018-04-23T17:51:20.661Z,4.87
2018-04-23T17:53:50.562Z,4.70
2018-04-23T17:56:20.081Z,4.53
2018-04-23T17:58:50.043Z,4.73
2018-04-23T18:01:19.713Z,5.63
2018-04-23T18:03:49.619Z,4.57
2018-04-23T18:06:19.543Z,5.90
2018-04-23T18:08:49.483Z,8.33
2018-04-23T18:11:18.996Z,9.17
2018-04-23T18:13:48.492Z,8.90
2018-04-23T18:16:18.010Z,6.70
2018-04-23T18:18:47.525Z,5.03
2018-04-23T18:21:17.022Z,4.17
2018-04-23T18:23:46.561Z,4.60
2018-04-23T18:26:16.078Z,3.90
2018-04-23T18:28:45.792Z,4.20
2018-04-23T18:31:15.288Z,4.20
2018-04-23T18:33:44.788Z,3.67
2018-04-23T18:36:14.513Z,4.27
2018-04-23T18:38:44.042Z,3.60
2018-04-23T18:41:13.751Z,4.30
2018-04-23T18:43:43.682Z,3.97
2018-04-23T18:46:13.207Z,4.20
2018-04-23T18:48:42.755Z,3.70
2018-04-23T18:51:12.279Z,3.80
2018-04-23T18:53:43.747Z,3.50
2018-04-23T18:56:13.280Z,3.97
2018-04-23T18:58:42.992Z,3.50
2018-04-23T19:01:12.571Z,3.53
2018-04-23T19:03:42.232Z,3.37
2018-04-23T19:06:11.735Z,4.00
2018-04-23T19:08:41.292Z,3.37
2018-04-23T19:11:11.198Z,3.40
2018-04-23T19:13:41.133Z,3.57
2018-04-23T19:16:10.645Z,3.83
2018-04-23T19:18:40.161Z,3.43
2018-04-23T19:21:09.784Z,3.20
2018-04-23T19:23:39.339Z,3.87
2018-04-23T19:26:08.977Z,4.07
2018-04-23T19:28:38.656Z,4.20
2018-04-23T19:31:08.555Z,3.60
2018-04-23T19:33:38.097Z,3.70
2018-04-23T19:36:07.604Z,3.40
2018-04-23T19:38:37.120Z,3.50
2018-04-23T19:41:06.851Z,3.60
2018-04-23T19:43:36.359Z,3.90
2018-04-23T19:46:05.343Z,4.30
2018-04-23T19:48:34.859Z,4.10
2018-04-23T19:51:04.439Z,4.30
2018-04-23T19:53:33.943Z,4.60
2018-04-23T19:56:03.453Z,5.60
2018-04-23T19:58:32.958Z,5.10
2018-04-23T20:01:02.479Z,5.50
2018-04-23T20:03:32.013Z,4.87
2018-04-23T20:06:01.523Z,4.93
2018-04-23T20:08:31.032Z,4.83
2018-04-23T20:11:00.594Z,5.87
2018-04-23T20:13:30.105Z,5.30
2018-04-23T20:15:59.603Z,5.87
2018-04-23T20:18:29.131Z,6.23
2018-04-23T20:20:58.639Z,6.23
2018-04-23T20:23:28.143Z,5.10
2018-04-23T20:25:57.689Z,4.40
2018-04-23T20:28:27.600Z,5.00
2018-04-23T20:30:57.527Z,5.30
2018-04-23T20:33:27.463Z,5.37
2018-04-23T20:35:57.539Z,5.53
2018-04-23T20:38:27.061Z,5.00
2018-04-23T20:40:56.970Z,5.40
2018-04-23T20:43:26.897Z,4.90
2018-04-23T20:45:56.660Z,7.93
2018-04-23T20:48:26.180Z,5.73
2018-04-23T20:50:55.683Z,4.60
2018-04-23T20:53:25.193Z,5.33
2018-04-23T20:55:54.748Z,5.87
2018-04-23T20:58:24.276Z,5.97
2018-04-23T21:00:53.812Z,5.60
2018-04-23T21:03:24.206Z,5.80
2018-04-23T21:05:53.725Z,5.43
2018-04-23T21:08:23.261Z,6.20
2018-04-23T21:10:53.191Z,5.83
2018-04-23T21:13:23.125Z,5.70
2018-04-23T21:15:52.677Z,5.50
2018-04-23T21:18:22.218Z,4.90
2018-04-23T21:20:51.968Z,4.53
2018-04-23T21:23:21.477Z,5.10
2018-04-23T21:25:51.153Z,5.10
2018-04-23T21:28:20.994Z,5.53
2018-04-23T21:30:51.124Z,4.73
2018-04-23T21:33:20.667Z,5.43
2018-04-23T21:35:50.204Z,5.20
2018-04-23T21:41:56.176Z,5.17
2018-04-23T21:44:26.096Z,4.63
2018-04-23T21:46:56.006Z,5.07
2018-04-23T21:49:25.924Z,5.33
2018-04-23T21:51:55.832Z,5.00
2018-04-23T21:54:25.762Z,4.83
2018-04-23T21:56:55.323Z,4.63
2018-04-23T21:59:24.834Z,5.07
2018-04-23T22:01:54.741Z,4.93
2018-04-23T22:04:24.812Z,4.90
2018-04-23T22:06:54.761Z,5.40
2018-04-23T22:09:24.353Z,4.80
2018-04-23T22:11:54.055Z,4.73
2018-04-23T22:14:23.563Z,5.87
2018-04-23T22:16:52.873Z,5.70
2018-04-23T22:19:22.374Z,5.37
2018-04-23T22:21:51.888Z,5.63
2018-04-23T22:24:21.411Z,5.97
2018-04-23T22:26:50.925Z,5.73
2018-04-23T22:30:02.350Z,5.57
2018-04-23T22:32:32.257Z,6.00
2018-04-23T22:35:01.771Z,6.10
2018-04-23T22:37:31.453Z,5.50
2018-04-23T22:40:00.957Z,5.60
2018-04-23T22:42:30.468Z,5.77
2018-04-23T22:44:59.971Z,5.70
2018-04-23T22:47:29.485Z,5.60
2018-04-23T22:49:58.994Z,6.27
2018-04-23T22:52:28.509Z,5.67
2018-04-23T22:54:58.030Z,5.93
2018-04-23T22:57:27.938Z,6.17
2018-04-23T22:59:57.835Z,6.03
2018-04-23T23:02:27.379Z,6.37
2018-04-23T23:04:56.889Z,6.03
2018-04-23T23:07:26.606Z,6.50
2018-04-23T23:09:56.158Z,6.40
2018-04-23T23:12:25.348Z,6.43
2018-04-23T23:14:54.867Z,6.80
2018-04-23T23:17:24.412Z,6.47
2018-04-23T23:19:53.907Z,6.23
2018-04-23T23:22:23.839Z,6.87
2018-04-23T23:24:53.350Z,6.77
2018-04-23T23:27:22.874Z,6.13
2018-04-23T23:29:52.557Z,6.83
2018-04-23T23:32:22.066Z,6.27
2018-04-23T23:34:51.569Z,6.03
2018-04-23T23:37:21.070Z,7.47
2018-04-23T23:39:50.614Z,7.23
2018-04-23T23:42:20.146Z,6.33
2018-04-23T23:44:49.660Z,6.53
2018-04-23T23:47:19.171Z,6.17
2018-04-23T23:49:49.098Z,6.63
2018-04-23T23:52:18.999Z,6.33
2018-04-23T23:54:48.929Z,6.40
2018-04-23T23:57:18.880Z,6.30
2018-04-23T23:59:48.567Z,6.90
